Flight Track Log - Related Links

Times and Time Zones

All times are in EDT time to prevent confusion due to time zone crossing. See the AAL2247 flight status page for this flight to view local times or setup timezone preferences in your user account.

Time Position Orientation Groundspeed Altitude Reporting Facility
EDT Latitude Longitude Course Direction KTS MPH feet Rate Location/Type
Thu 06:57:26 PM 39.3167 -94.7167 263° West 171 197 1,500  Level Kansas City TRACON
Thu 06:58:38 PM 39.3794 -94.7556 334° Northwest 227 261 3,400 2,149 Climbing Kansas City Center
Thu 06:59:40 PM 39.3656 -94.8425 258° West 260 299 6,300 3,000 Climbing Kansas City Center
Thu 07:00:00 PM 39.2316 -95.0808 261° West  Level FlightAware Approximate
Thu 07:00:42 PM 39.3367 -94.9367 248° West 271 312 9,600  Level Kansas City Center
Thu 07:01:00 PM 39.2159 -95.2089 263° West  Level FlightAware Approximate
Thu 07:01:44 PM 39.2761 -94.9956 217° Southwest 284 327 11,300  Level Kansas City Center
Thu 07:02:00 PM 39.2042 -95.3378 263° West  Level FlightAware Approximate
Thu 07:02:47 PM 39.1906 -95.0714 214° Southwest 328 377 14,100  Level Kansas City Center
Thu 07:03:49 PM 39.1136 -95.1425 216° Southwest 337 388 16,500 2,274 Climbing Kansas City Center
Thu 07:04:51 PM 39.0281 -95.2203 215° Southwest 349 402 18,800 1,935 Climbing Kansas City Center
Thu 07:05:53 PM 38.9461 -95.2967 216° Southwest 367 422 20,500 1,694 Climbing Kansas City Center
Thu 07:06:55 PM 38.8639 -95.3700 215° Southwest 374 430 22,300 1,742 Climbing Kansas City Center
Thu 07:07:57 PM 38.7664 -95.4575 215° Southwest 381 438 24,100 1,548 Climbing Kansas City Center
Thu 07:08:59 PM 38.6817 -95.5356 216° Southwest 390 449 25,500 1,500 Climbing Kansas City Center
Thu 07:10:01 PM 38.5806 -95.6247 215° Southwest 395 455 27,200 1,403 Climbing Kansas City Center
Thu 07:11:03 PM 38.4836 -95.6867 207° Southwest 403 464 28,400 1,452 Climbing Kansas City Center
Thu 07:12:05 PM 38.3725 -95.7567 206° Southwest 400 460 30,200 1,694 Climbing Kansas City Center
Thu 07:13:07 PM 38.2825 -95.8167 208° Southwest 382 440 31,900 871 Climbing Kansas City Center
Thu 07:14:09 PM 38.1778 -95.8825 206° Southwest 376 433 32,000 48 Climbing Kansas City Center
Thu 07:15:11 PM 38.0878 -95.9394 206° Southwest 377 434 32,000 -48 Level Kansas City Center
Thu 07:16:13 PM 37.9967 -95.9986 207° Southwest 383 441 31,900 -48 Descending Kansas City Center
Thu 07:17:15 PM 37.8867 -96.0683 207° Southwest 383 441 31,900  Level Kansas City Center
Thu 07:18:17 PM 37.8000 -96.1217 206° Southwest 375 432 31,900 48 Level Kansas City Center
Thu 07:19:19 PM 37.7069 -96.1811 207° Southwest 374 430 32,000 48 Climbing Kansas City Center
Thu 07:20:21 PM 37.6058 -96.2419 205° Southwest 377 434 32,000 -48 Level Kansas City Center
Thu 07:21:23 PM 37.5114 -96.3028 207° Southwest 379 436 31,900  Descending Kansas City Center
Thu 07:22:25 PM 37.3989 -96.3719 206° Southwest 377 434 32,000 48 Climbing Kansas City Center
Thu 07:23:27 PM 37.3044 -96.4314 207° Southwest 378 435 32,000  Level Kansas City Center
Thu 07:24:29 PM 37.2181 -96.4850 206° Southwest 372 428 32,000 194 Level Kansas City Center
Thu 07:25:31 PM 37.1208 -96.5447 206° Southwest 371 427 32,400 387 Climbing Kansas City Center
Thu 07:26:33 PM 37.0306 -96.6014 207° Southwest 367 422 32,800 435 Climbing Kansas City Center
Thu 07:27:35 PM 36.9406 -96.6558 206° Southwest 363 418 33,300 532 Climbing Kansas City Center
Thu 07:28:37 PM 36.8339 -96.7217 206° Southwest 360 414 33,900 339 Climbing Kansas City Center
Thu 07:29:39 PM 36.7458 -96.7750 206° Southwest 354 407 34,000 48 Climbing Kansas City Center
Thu 07:30:42 PM 36.6572 -96.8300 206° Southwest 355 409 34,000  Level Kansas City Center
Thu 07:31:44 PM 36.5617 -96.8878 206° Southwest 356 410 34,000  Level Kansas City Center
Thu 07:32:46 PM 36.4722 -96.9417 206° Southwest 357 411 34,000  Level Kansas City Center
Thu 07:33:48 PM 36.3833 -96.9969 207° Southwest 357 411 34,000  Level Kansas City Center
Thu 07:34:50 PM 36.2922 -97.0506 205° Southwest 361 415 34,000  Level Kansas City Center
Thu 07:35:52 PM 36.2014 -97.1067 206° Southwest 364 419 34,000  Level Kansas City Center
Thu 07:36:54 PM 36.1097 -97.1631 206° Southwest 367 422 34,000  Level Kansas City Center
Thu 07:37:56 PM 36.0003 -97.2269 205° Southwest 364 419 34,000  Level Kansas City Center
Thu 07:38:58 PM 35.9103 -97.2825 207° Southwest 363 418 34,000  Level Kansas City Center
Thu 07:39:38 PM 35.8544 -97.3164 206° Southwest 363 418 34,000  Level Fort Worth Center
Thu 07:40:38 PM 35.7628 -97.3728 207° Southwest 363 418 34,000  Level Fort Worth Center
Thu 07:41:37 PM 35.6711 -97.4289 206° Southwest 363 418 34,000  Level Fort Worth Center
Thu 07:42:38 PM 35.5772 -97.4850 206° Southwest 363 418 34,000  Level Fort Worth Center
Thu 07:43:38 PM 35.4811 -97.5436 206° Southwest 363 418 34,000  Level Fort Worth Center
Thu 07:44:38 PM 35.3747 -97.6044 205° Southwest 375 432 34,000 -100 Level Fort Worth Center
Thu 07:45:38 PM 35.2664 -97.6017 179° South 373 429 33,800 -750 Descending Fort Worth Center
Thu 07:46:38 PM 35.1558 -97.5861 173° South 383 441 32,500 -1,350 Descending Fort Worth Center
Thu 07:47:38 PM 35.0433 -97.5683 173° South 394 453 31,100 -1,450 Descending Fort Worth Center
Thu 07:48:38 PM 34.9244 -97.5503 173° South 417 480 29,600 -1,500 Descending Fort Worth Center
Thu 07:49:38 PM 34.8097 -97.5350 174° South 422 486 28,100 -1,500 Descending Fort Worth Center
Thu 07:50:38 PM 34.6950 -97.5169 173° South 422 486 26,600 -1,450 Descending Fort Worth Center
Thu 07:51:38 PM 34.5822 -97.5044 175° South 422 486 25,200 -1,200 Descending Fort Worth Center
Thu 07:52:38 PM 34.4739 -97.4867 172° South 410 472 24,200 -600 Descending Fort Worth Center
Thu 07:53:38 PM 34.3675 -97.4714 173° South 399 459 24,000 -100 Descending Fort Worth Center
Thu 07:54:38 PM 34.2672 -97.4864 187° South 367 422 24,000  Level Fort Worth Center
Thu 07:55:38 PM 34.1711 -97.5289 200° South 367 422 24,000 -300 Level Fort Worth Center
Thu 07:56:38 PM 34.0814 -97.5389 185° South 367 422 23,400 -1,300 Descending Fort Worth Center
Thu 07:57:38 PM 33.9814 -97.5536 187° South 367 422 21,400 -2,200 Descending Fort Worth Center
Thu 07:58:38 PM 33.8728 -97.5711 188° South 367 422 19,000 -2,200 Descending Fort Worth Center
Thu 07:59:38 PM 33.7767 -97.5833 186° South 367 422 17,000 -1,850 Descending Fort Worth Center
Thu 08:00:38 PM 33.6828 -97.5981 187° South 362 417 15,300 -1,700 Descending Fort Worth Center
Thu 08:01:38 PM 33.5992 -97.6106 187° South 344 396 13,600 -1,750 Descending Fort Worth Center
Thu 08:02:38 PM 33.4950 -97.6253 187° South 344 396 11,800 -1,600 Descending Fort Worth Center
Thu 08:03:38 PM 33.4072 -97.6400 188° South 331 381 10,400 -1,250 Descending Fort Worth Center
Thu 08:04:38 PM 33.3425 -97.5950 150° Southeast 280 322 9,300 -1,250 Descending Fort Worth Center
Thu 08:05:38 PM 33.3092 -97.4981 112° Southeast 273 314 7,900 -1,100 Descending Fort Worth Center
Thu 08:06:38 PM 33.2758 -97.4108 115° Southeast 283 326 7,100 -800 Descending Fort Worth Center
Thu 08:07:38 PM 33.2467 -97.3339 114° Southeast 289 333 6,300 -900 Descending Fort Worth Center
Thu 08:08:38 PM 33.2111 -97.2372 114° Southeast 289 333 5,300 -700 Descending Fort Worth Center
Thu 08:09:38 PM 33.1839 -97.1653 114° Southeast 277 319 4,900 -300 Descending Fort Worth Center
Thu 08:10:38 PM 33.1483 -97.1033 124° Southeast 231 266 4,700 -454 Descending Fort Worth Center
Thu 08:11:37 PM 33.1083 -97.0761 150° Southeast 187 215 4,000 -700 Descending Fort Worth Center
Thu 08:12:38 PM 33.0625 -97.0564 160° South 165 190 3,300 -645 Descending Fort Worth Center
Thu 08:13:38 PM 33.0250 -97.0567 180° South 160 184 2,700 -750 Descending Fort Worth Center
Thu 08:14:38 PM 32.9769 -97.0569 180° South 155 178 1,800 -780 Descending Fort Worth Center
Thu 08:15:41 PM 32.9333 -97.0500 172° South 129 148 1,100 -667 Descending Dallas / Fort Worth TRACON
Thu 08:17:00 PM 32.8968 -97.0380 140° Southeast  Level Estimated
Thu 08:24:00 PM 32.8968 -97.0380 140° Southeast  Level Estimated

Login

Don't have an account? Register now (free) for customized features, flight alerts, and more!